M I D A S
Marine Information and Data Acquisition System
Tripno 707 of the Zeeleeuw from 2004-05-04 07:46:19 to 2004-05-04 12:57:40
Back to CruiseResearch ActivitiesStationsMapUnderway DataData graphs

EquipmentUnitsComment
TimeDGPSUTC
LatitudeDGPSDM.mWGS84
LongitudeDGPSDM.mWGS84
HeadingGyrodeg 
SOGDGPSknotsSpeed over ground
COGDGPSdegCourse over ground
DepthEcho soundermeters200 kHz
Missing or incorrect values are displayed as -999
Navigation data collected by the RV Zeeleeuw from 2004-05-04 07:46:19 to 2004-05-04 12:57:40
Time Latitude Longitude Heading SOG COG Depth
2004-05-04 07:47:20 51°18.039 2°41.621 284 14.7 276 22.7
2004-05-04 07:48:20 51°18.063 2°41.231 284.5 14.7 275 20.5
2004-05-04 07:49:22 51°18.089 2°40.83 285.3 14.7 276 14.7
2004-05-04 07:50:21 51°18.122 2°40.45 285.9 14.7 278 18.9
2004-05-04 07:51:22 51°18.157 2°40.059 286.1 14.6 279 10.4
2004-05-04 07:52:22 51°18.195 2°39.676 285.6 14.5 279 25.6
2004-05-04 07:53:21 51°18.229 2°39.303 286.1 14.5 278 25.4
2004-05-04 07:54:21 51°18.263 2°38.924 285.9 14.3 278 25.6
2004-05-04 07:55:22 51°18.297 2°38.54 286.8 14.4 278 26.6
2004-05-04 07:56:22 51°18.326 2°38.16 285.9 14.3 277 25.6
2004-05-04 07:57:21 51°18.354 2°37.785 286.4 14.5 277 23.5
2004-05-04 07:58:21 51°18.383 2°37.401 287 14.5 278 20.4
2004-05-04 07:59:22 51°18.413 2°37.007 285.9 14.7 277 19.1
2004-05-04 08:00:22 51°18.445 2°36.619 286.2 14.8 278 18.1
2004-05-04 08:01:22 51°18.476 2°36.228 283.7 14.8 273 20.2
2004-05-04 08:02:21 51°18.462 2°35.845 268.3 14.7 261 24.9
2004-05-04 08:03:22 51°18.407 2°35.455 263 14.8 257 26.7
2004-05-04 08:04:22 51°18.354 2°35.071 263.5 14.9 257 25.5
2004-05-04 08:05:21 51°18.303 2°34.689 263.3 15 258 26.7
2004-05-04 08:06:22 51°18.251 2°34.296 263.9 14.9 258 23.8
2004-05-04 08:07:20 51°18.226 2°33.918 274.5 14.7 267 24.5
2004-05-04 08:08:22 51°18.215 2°33.516 274.3 14.7 267 21.6
2004-05-04 08:09:22 51°18.203 2°33.128 273.4 14.5 267 20
2004-05-04 08:10:22 51°18.192 2°32.742 273.6 14.5 267 23.8
2004-05-04 08:11:22 51°18.179 2°32.36 273.3 14.4 266 25.9
2004-05-04 08:12:22 51°18.127 2°31.988 254.1 14.6 247 27
2004-05-04 08:13:22 51°18.023 2°31.636 249.6 14.8 245 28.1
2004-05-04 08:14:21 51°17.922 2°31.286 250.4 14.7 246 28.9
2004-05-04 08:15:22 51°17.819 2°30.923 250 14.9 246 29.4
2004-05-04 08:16:21 51°17.718 2°30.57 250.9 14.9 245 29.2
2004-05-04 08:17:22 51°17.616 2°30.204 251.2 14.9 246 29
2004-05-04 08:18:22 51°17.514 2°29.844 250 14.9 243 29.4
2004-05-04 08:19:22 51°17.4 2°29.492 247.5 15 243 28.8
2004-05-04 08:20:22 51°17.283 2°29.14 246.8 15.1 242 28.8
2004-05-04 08:21:22 51°17.167 2°28.787 247.4 14.8 243 27.2
2004-05-04 08:22:22 51°17.074 2°28.5 247.5 11.3 242 25.2
2004-05-04 08:23:22 51°16.995 2°28.285 235.9 7.8 233 23.5
2004-05-04 08:24:21 51°16.923 2°28.14 236.6 6.7 234 21.3
2004-05-04 08:25:22 51°16.863 2°27.986 242.7 6.7 238 19.8
2004-05-04 08:26:22 51°16.8 2°27.85 233.7 6.3 234 17.6
2004-05-04 08:27:21 51°16.741 2°27.717 228.1 5.8 227 15.7
2004-05-04 08:28:22 51°16.676 2°27.628 217.7 4.4 223 15.5
2004-05-04 08:29:22 51°16.649 2°27.519 271.4 5.6 263 13.8
2004-05-04 08:30:22 51°16.643 2°27.362 281.4 5 271 11.3
2004-05-04 08:31:22 51°16.641 2°27.302 304.8 0.8 248 10.9
2004-05-04 08:32:22 51°16.642 2°27.284 318.5 0.8 283 -999
2004-05-04 08:33:22 51°16.645 2°27.263 313.4 0.9 283 10.9
2004-05-04 08:34:22 51°16.65 2°27.241 308 1 299 10.4
2004-05-04 08:35:22 51°16.664 2°27.208 322.4 1.7 303 10.7
2004-05-04 08:36:21 51°16.689 2°27.164 338.9 3.4 328 9.6
2004-05-04 08:37:22 51°16.74 2°27.188 58.6 3.7 56 9.9
2004-05-04 08:38:22 51°16.716 2°27.276 140.4 4.3 149 10.3
2004-05-04 08:39:22 51°16.637 2°27.313 156.6 5.5 159 11.4
2004-05-04 08:40:22 51°16.542 2°27.37 159.8 7.1 164 13.2
2004-05-04 08:41:22 51°16.387 2°27.379 184.2 10.7 186 16.7
2004-05-04 08:42:21 51°16.175 2°27.338 188.7 14 189 20.4
2004-05-04 08:43:22 51°15.939 2°27.272 192.8 14.3 192 22
2004-05-04 08:44:22 51°15.708 2°27.196 192 14.1 191 23
2004-05-04 08:45:22 51°15.477 2°27.125 191.2 14.3 191 23.7
2004-05-04 08:46:21 51°15.247 2°27.061 190.8 14.2 190 25.5
2004-05-04 08:47:22 51°15.011 2°26.982 194.9 14.2 193 27.4
2004-05-04 08:48:22 51°14.781 2°26.894 195.1 14.3 194 27.7
2004-05-04 08:49:22 51°14.549 2°26.805 194.9 14.3 193 28.4
2004-05-04 08:50:22 51°14.318 2°26.721 194.7 14.2 193 28.3
2004-05-04 08:51:22 51°14.087 2°26.637 194.3 14.2 192 28.1
2004-05-04 08:52:22 51°13.856 2°26.553 193.8 14.2 192 27.8
2004-05-04 08:53:21 51°13.628 2°26.471 194.4 14.1 193 27.5
2004-05-04 08:54:22 51°13.395 2°26.39 194.2 14.1 192 26.8
2004-05-04 08:55:22 51°13.166 2°26.31 194.1 14.1 192 27.4
2004-05-04 08:56:22 51°12.937 2°26.23 194.5 14.1 192 25.8
2004-05-04 08:57:21 51°12.711 2°26.151 194.4 14.1 192 26.1
2004-05-04 08:58:21 51°12.482 2°26.072 194.7 14.1 192 26.3
2004-05-04 08:59:22 51°12.25 2°25.995 193.8 13.9 192 26
2004-05-04 09:00:22 51°12.024 2°25.924 193.8 13.8 191 25.3
2004-05-04 09:01:22 51°11.8 2°25.857 194.5 13.6 190 24.9
2004-05-04 09:02:22 51°11.575 2°25.79 194.4 13.8 190 21.3
2004-05-04 09:03:22 51°11.352 2°25.729 194.4 13.5 190 17.1
2004-05-04 09:04:28 51°11.11 2°25.764 165 13.7 158 14.3
2004-05-04 09:05:28 51°10.937 2°25.998 133.4 13.9 128 18.6
2004-05-04 09:06:28 51°10.867 2°26.345 101.8 14.1 94 20.9
2004-05-04 09:07:28 51°10.898 2°26.713 82.7 13.8 78 22
2004-05-04 09:08:28 51°10.943 2°27.08 83.9 14.2 80 22.3
2004-05-04 09:09:28 51°10.992 2°27.437 79.5 13.7 76 21.6
2004-05-04 09:10:28 51°11.04 2°27.785 81.2 13.2 77 19
2004-05-04 09:11:28 51°11.082 2°28.145 85.9 13.6 81 21.1
2004-05-04 09:12:28 51°11.115 2°28.508 86.7 14.1 84 21
2004-05-04 09:13:28 51°11.138 2°28.872 85 14 81 19.8
2004-05-04 09:14:28 51°11.16 2°29.244 88.4 14.2 86 17
2004-05-04 09:15:28 51°11.183 2°29.61 88 14 86 15.6
2004-05-04 09:16:28 51°11.161 2°29.978 104.5 14 103 15.7
2004-05-04 09:17:32 51°11.072 2°30.345 115 14.2 112 15.7
2004-05-04 09:18:32 51°10.953 2°30.663 129.7 14 123 19.6
2004-05-04 09:19:32 51°10.825 2°30.93 133.3 9.8 128 23.1
2004-05-04 09:20:32 51°10.753 2°31.096 122.2 7 113 21.2
2004-05-04 09:21:32 51°10.734 2°31.274 103.6 6.7 99 19.7
2004-05-04 09:22:32 51°10.708 2°31.443 116.1 6.4 105 19.3
2004-05-04 09:23:32 51°10.706 2°31.573 101.5 3.6 90 18.9
2004-05-04 09:24:32 51°10.712 2°31.624 111 1 29 18.7
2004-05-04 09:25:32 51°10.728 2°31.638 98.4 1.5 46 18.6
2004-05-04 09:26:32 51°10.742 2°31.673 104.2 1.7 63 18.5
2004-05-04 09:27:32 51°10.752 2°31.714 123.2 1.7 72 18.1
2004-05-04 09:28:32 51°10.76 2°31.756 131.2 1.8 75 17.9
2004-05-04 09:29:32 51°10.769 2°31.802 133 1.8 72 17.5
2004-05-04 09:30:32 51°10.779 2°31.848 133 1.8 72 17.1
2004-05-04 09:31:32 51°10.788 2°31.896 131.5 1.9 71 17
2004-05-04 09:32:32 51°10.798 2°31.943 125.7 1.9 72 16.8
2004-05-04 09:33:32 51°10.81 2°31.991 120.8 2.1 65 16.5
2004-05-04 09:34:32 51°10.819 2°32.042 123.3 2 75 16.2
2004-05-04 09:35:32 51°10.827 2°32.094 125.5 2.1 79 15.9
2004-05-04 09:36:32 51°10.833 2°32.148 129.1 2.1 80 15.7
2004-05-04 09:37:32 51°10.834 2°32.224 111.2 3.6 90 15.3
2004-05-04 09:38:31 51°10.863 2°32.365 51.2 6.7 52 14.5
2004-05-04 09:39:32 51°10.952 2°32.421 349.3 4.3 5 15.5
2004-05-04 09:40:32 51°10.99 2°32.44 321.4 1.8 35 15.7
2004-05-04 09:41:32 51°11.009 2°32.469 306 1.5 50 15.8
2004-05-04 09:42:40 51°11.028 2°32.508 300 1.8 52 15.8
2004-05-04 09:43:40 51°11.045 2°32.547 300.4 1.8 56 15.6
2004-05-04 09:44:40 51°11.063 2°32.589 300.6 1.9 59 15.7
2004-05-04 09:45:40 51°11.081 2°32.631 300.3 1.9 54 15.6
2004-05-04 09:46:40 51°11.103 2°32.666 296.9 1.6 34 15.7
2004-05-04 09:47:40 51°11.12 2°32.664 262.4 0.8 305 15.8
2004-05-04 09:48:40 51°11.116 2°32.644 243.6 1.2 235 15.9
2004-05-04 09:49:40 51°11.098 2°32.609 235.8 1.8 222 15.8
2004-05-04 09:50:40 51°11.083 2°32.57 248.9 1.8 248 16.1
2004-05-04 09:51:40 51°11.068 2°32.529 239 1.8 232 16.3
2004-05-04 09:52:40 51°11.044 2°32.494 234.3 2 222 16.2
2004-05-04 09:53:40 51°11.019 2°32.455 236.9 2.2 225 16.3
2004-05-04 09:54:40 51°10.994 2°32.412 239.4 2.1 226 16.2
2004-05-04 09:55:40 51°10.965 2°32.382 225.5 2.1 203 16.4
2004-05-04 09:56:40 51°10.932 2°32.358 227.9 2.3 208 16.2
2004-05-04 09:57:40 51°10.9 2°32.325 235.6 2.2 222 16.1
2004-05-04 09:58:40 51°10.875 2°32.29 236.9 2 223 16.1
2004-05-04 09:59:40 51°10.849 2°32.256 235.8 2.1 218 16
2004-05-04 10:00:40 51°10.823 2°32.219 239.5 1.9 227 15.8
2004-05-04 10:01:40 51°10.804 2°32.181 241.4 1.9 234 15.7
2004-05-04 10:02:40 51°10.785 2°32.141 239 1.9 231 15.8
2004-05-04 10:03:40 51°10.764 2°32.106 238.2 1.6 229 15.9
2004-05-04 10:04:40 51°10.746 2°32.067 240.4 1.9 234 16.2
2004-05-04 10:05:40 51°10.724 2°32.03 238 1.9 225 16.1
2004-05-04 10:06:40 51°10.702 2°31.994 238.7 1.9 227 16.1
2004-05-04 10:07:40 51°10.684 2°31.954 241.6 1.8 238 16.2
2004-05-04 10:08:40 51°10.669 2°31.913 246.1 1.9 249 16.4
2004-05-04 10:09:40 51°10.662 2°31.865 251.6 1.8 264 16.6
2004-05-04 10:10:40 51°10.678 2°31.809 279.8 2.8 306 17.6
2004-05-04 10:11:40 51°10.705 2°31.77 280.1 1.7 339 18.4
2004-05-04 10:12:40 51°10.731 2°31.769 278.2 1.6 11 18.8
2004-05-04 10:13:40 51°10.757 2°31.788 280.3 1.8 30 18.8
2004-05-04 10:14:40 51°10.783 2°31.82 285.7 2.2 43 18.9
2004-05-04 10:15:40 51°10.824 2°31.825 322.6 3.7 357 19.1
2004-05-04 10:16:40 51°10.903 2°31.871 22.9 6.2 32 19.1
2004-05-04 10:17:40 51°10.983 2°31.985 48.2 6.1 49 18.9
2004-05-04 10:18:40 51°11.035 2°32.111 69.9 5.3 62 18.7
2004-05-04 10:19:40 51°11.069 2°32.23 78.7 4.8 65 18.2
2004-05-04 10:20:40 51°11.099 2°32.34 80.5 4.3 67 17.8
2004-05-04 10:21:40 51°11.131 2°32.443 74.5 4.2 64 17.1
2004-05-04 10:22:40 51°11.165 2°32.538 64.6 4 60 16.6
2004-05-04 10:23:40 51°11.204 2°32.626 46.5 4.3 50 15.7
2004-05-04 10:24:40 51°11.253 2°32.713 37 4.3 46 15.3
2004-05-04 10:25:40 51°11.304 2°32.788 22.5 4 40 15.1
2004-05-04 10:26:44 51°11.359 2°32.848 3.5 3.7 30 15.3
2004-05-04 10:27:44 51°11.414 2°32.896 356.3 3.8 25 15
2004-05-04 10:28:44 51°11.471 2°32.935 350.9 3.6 23 15.2
2004-05-04 10:29:44 51°11.526 2°32.976 354 3.6 26 16.2
2004-05-04 10:30:44 51°11.58 2°33.024 7.7 3.8 33 18.2
2004-05-04 10:31:44 51°11.634 2°33.091 23.4 4.1 38 19
2004-05-04 10:32:44 51°11.691 2°33.155 13.3 4.1 31 20.6
2004-05-04 10:33:44 51°11.749 2°33.213 11 4.2 35 20.1
2004-05-04 10:34:44 51°11.804 2°33.281 26.2 4.4 40 20.8
2004-05-04 10:35:44 51°11.857 2°33.362 36.7 4.4 45 21.7
2004-05-04 10:36:44 51°11.904 2°33.451 58 4.2 53 21.4
2004-05-04 10:37:44 51°11.942 2°33.54 69.8 3.9 59 20.8
2004-05-04 10:38:44 51°11.976 2°33.628 75.8 3.9 57 20.7
2004-05-04 10:39:44 51°12.008 2°33.719 79.8 3.9 62 20.4
2004-05-04 10:40:44 51°12.037 2°33.807 88.3 3.5 65 20.4
2004-05-04 10:41:44 51°12.063 2°33.888 94 3.4 63 20
2004-05-04 10:42:44 51°12.088 2°33.967 99.4 3.3 62 19.7
2004-05-04 10:43:44 51°12.111 2°34.05 100.5 4.2 73 19.3
2004-05-04 10:44:44 51°12.166 2°34.193 45.3 8.8 42 18.6
2004-05-04 10:45:44 51°12.335 2°34.376 35.5 15.2 30 18.9
2004-05-04 10:46:44 51°12.545 2°34.605 38.9 15 37 17.7
2004-05-04 10:47:44 51°12.746 2°34.847 37 15.3 36 16
2004-05-04 10:48:49 51°12.97 2°35.105 37.6 15.4 35 17.6
2004-05-04 10:49:49 51°13.173 2°35.356 38.5 15.6 37 19.9
2004-05-04 10:50:49 51°13.38 2°35.603 39.1 15.8 34 20.1
2004-05-04 10:51:49 51°13.586 2°35.851 39.6 15.3 34 21.7
2004-05-04 10:52:48 51°13.786 2°36.092 39.6 15.4 33 20.5
2004-05-04 10:53:48 51°13.985 2°36.341 37.6 15.1 38 18
2004-05-04 10:54:49 51°14.192 2°36.589 40.4 15.2 40 15
2004-05-04 10:55:49 51°14.392 2°36.832 37.9 15.2 44 13.7
2004-05-04 10:56:49 51°14.592 2°37.064 34.6 14.9 32 13.4
2004-05-04 10:57:49 51°14.801 2°37.27 28.2 14.8 36 13.3
2004-05-04 10:58:48 51°15.01 2°37.473 32.6 15.1 36 13.6
2004-05-04 10:59:48 51°15.219 2°37.676 29.6 14.5 35 13.9
2004-05-04 11:00:48 51°15.425 2°37.896 32.3 15.2 38 13.5
2004-05-04 11:01:48 51°15.638 2°38.103 27.3 14.6 24 13.4
2004-05-04 11:02:49 51°15.865 2°38.266 22 15 27 13.2
2004-05-04 11:03:49 51°16.086 2°38.438 24.2 14.7 24 13.3
2004-05-04 11:04:48 51°16.304 2°38.594 24.2 14.5 27 13.3
2004-05-04 11:05:48 51°16.522 2°38.758 25.8 14.7 23 12.8
2004-05-04 11:06:49 51°16.748 2°38.922 21.1 14.4 20 12.9
2004-05-04 11:07:48 51°16.96 2°39.101 26.7 14.7 25 13.3
2004-05-04 11:08:48 51°17.178 2°39.278 23.7 14.8 26 12.5
2004-05-04 11:09:48 51°17.4 2°39.446 23.4 14.5 23 14.4
2004-05-04 11:10:48 51°17.568 2°39.515 16.8 7.7 26 21.3
2004-05-04 11:11:48 51°17.634 2°39.645 78.8 5.8 69 20.5
2004-05-04 11:12:48 51°17.645 2°39.772 121.2 3.1 73 18.7
2004-05-04 11:13:48 51°17.67 2°39.839 115.9 4.1 79 16.9
2004-05-04 11:14:49 51°17.673 2°39.94 140.3 4.3 109 18
2004-05-04 11:15:49 51°17.642 2°40.009 195.2 1.9 85 18.4
2004-05-04 11:16:48 51°17.67 2°40.068 203 3.2 44 16.5
2004-05-04 11:17:49 51°17.7 2°40.123 216.2 1.8 54 18.5
2004-05-04 11:18:48 51°17.715 2°40.154 227.7 1.3 41 18.5
2004-05-04 11:19:49 51°17.728 2°40.174 227.6 0.5 46 18.3
2004-05-04 11:20:49 51°17.733 2°40.191 221.9 1.1 61 17.8
2004-05-04 11:21:49 51°17.748 2°40.225 233.1 1.5 48 15.4
2004-05-04 11:22:49 51°17.755 2°40.246 217.7 0.8 117 16.9
2004-05-04 11:23:48 51°17.742 2°40.272 198.1 1.7 128 18.6
2004-05-04 11:24:49 51°17.73 2°40.316 194.9 1.8 106 18.2
2004-05-04 11:25:48 51°17.734 2°40.352 229.9 1.4 60 16.2
2004-05-04 11:26:49 51°17.741 2°40.346 247.3 0.8 244 16.7
2004-05-04 11:27:48 51°17.728 2°40.342 211.4 1.7 174 17.2
2004-05-04 11:28:48 51°17.715 2°40.322 251.6 1.7 265 17.8
2004-05-04 11:29:49 51°17.703 2°40.29 228.7 1.6 205 18.6
2004-05-04 11:30:49 51°17.662 2°40.254 235.7 4 230 18.2
2004-05-04 11:31:48 51°17.618 2°40.155 235.1 4.9 229 17.6
2004-05-04 11:32:49 51°17.577 2°40.091 227 1.5 211 17.6
2004-05-04 11:33:49 51°17.574 2°40.088 232.8 0.5 27 17.3
2004-05-04 11:34:49 51°17.592 2°40.106 252.4 0.8 319 17.9
2004-05-04 11:35:49 51°17.575 2°40.059 233.7 2.7 220 14.6
2004-05-04 11:36:49 51°17.55 2°40.007 251 2.7 263 17.2
2004-05-04 11:37:48 51°17.556 2°39.933 263.6 2.7 276 15.4
2004-05-04 11:38:48 51°17.58 2°39.856 283.5 3.7 302 17.1
2004-05-04 11:39:48 51°17.616 2°39.782 276.1 2.4 300 17.1
2004-05-04 11:40:49 51°17.62 2°39.737 240.3 1.9 238 19
2004-05-04 11:41:49 51°17.588 2°39.699 222.3 2.8 205 16.3
2004-05-04 11:42:48 51°17.546 2°39.677 217 2.4 192 15.5
2004-05-04 11:43:49 51°17.506 2°39.669 216.2 2.5 189 16.4
2004-05-04 11:44:48 51°17.473 2°39.646 225 2 205 15.9
2004-05-04 11:45:49 51°17.444 2°39.622 217.1 1.9 190 15.9
2004-05-04 11:46:49 51°17.417 2°39.598 232.3 1.8 217 15.2
2004-05-04 11:47:48 51°17.392 2°39.573 230.4 1.8 218 14.1
2004-05-04 11:48:49 51°17.362 2°39.549 222.6 2.2 201 14.5
2004-05-04 11:49:49 51°17.324 2°39.529 220.8 2.4 198 15.1
2004-05-04 11:50:49 51°17.288 2°39.504 224.2 2.4 201 14.7
2004-05-04 11:51:49 51°17.251 2°39.486 217 2.3 192 15.1
2004-05-04 11:52:49 51°17.226 2°39.462 229.4 1.3 219 14.4
2004-05-04 11:53:48 51°17.206 2°39.438 231.2 1.7 239 13.4
2004-05-04 11:54:48 51°17.201 2°39.382 252.5 2.4 261 14
2004-05-04 11:55:48 51°17.207 2°39.354 255.4 0.9 345 14
2004-05-04 11:56:49 51°17.228 2°39.369 259.8 1.8 39 14
2004-05-04 11:57:48 51°17.255 2°39.406 275 2.4 41 14
2004-05-04 11:58:49 51°17.285 2°39.448 287.5 2.3 46 13.7
2004-05-04 11:59:48 51°17.312 2°39.492 289.7 2.5 43 14
2004-05-04 12:00:48 51°17.333 2°39.482 247.9 1.1 262 14.2
2004-05-04 12:01:48 51°17.279 2°39.469 192.9 6.6 176 14.5
2004-05-04 12:02:48 51°17.145 2°39.452 199.6 8.9 189 14.9
2004-05-04 12:03:48 51°16.993 2°39.415 200 9.6 188 15.4
2004-05-04 12:04:48 51°16.833 2°39.371 200.3 9.6 190 15.6
2004-05-04 12:05:49 51°16.668 2°39.324 200.7 10.7 191 16.3
2004-05-04 12:06:49 51°16.472 2°39.291 193.4 12.1 183 17.8
2004-05-04 12:07:49 51°16.273 2°39.275 188.3 12.2 180 20.1
2004-05-04 12:08:49 51°16.073 2°39.277 188.4 12 179 21.2
2004-05-04 12:09:49 51°15.874 2°39.281 189.3 12.1 180 21.9
2004-05-04 12:10:48 51°15.676 2°39.281 188.6 11.9 179 21.9
2004-05-04 12:11:49 51°15.474 2°39.336 179.4 12.2 168 21.7
2004-05-04 12:12:48 51°15.278 2°39.392 179.3 12.1 169 21
2004-05-04 12:13:48 51°15.08 2°39.451 179.6 12.1 168 19.7
2004-05-04 12:14:48 51°14.889 2°39.564 168.9 12.6 156 18
2004-05-04 12:15:49 51°14.703 2°39.728 158.1 13 147 17.5
2004-05-04 12:16:49 51°14.523 2°39.915 156.3 12.8 150 16.3
2004-05-04 12:17:49 51°14.352 2°40.122 151.6 13.2 136 15.1
2004-05-04 12:18:48 51°14.224 2°40.407 127.3 13.8 110 17.1
2004-05-04 12:19:48 51°14.176 2°40.778 108.6 14.7 97 17
2004-05-04 12:20:49 51°14.176 2°41.172 96.3 14.7 86 17.7
2004-05-04 12:21:55 51°14.185 2°41.604 98.7 15 88 19.5
2004-05-04 12:22:54 51°14.23 2°41.99 87.9 15.1 82 20.1
2004-05-04 12:23:54 51°14.282 2°42.383 86.9 15.3 78 19.8
2004-05-04 12:24:54 51°14.326 2°42.776 91.7 15 81 19.7
2004-05-04 12:25:54 51°14.368 2°43.167 88.4 14.8 78 19.3
2004-05-04 12:26:55 51°14.413 2°43.564 88.5 14.9 83 18.7
2004-05-04 12:27:54 51°14.456 2°43.944 87.9 14.8 79 18.2
2004-05-04 12:28:54 51°14.499 2°44.331 87.5 14.6 77 17.1
2004-05-04 12:29:55 51°14.531 2°44.729 92.7 15.1 85 15.5
2004-05-04 12:30:55 51°14.564 2°45.127 88.9 15 79 13.7
2004-05-04 12:31:54 51°14.617 2°45.509 85.9 14.9 77 12
2004-05-04 12:32:55 51°14.668 2°45.899 86.3 14.5 80 11.4
2004-05-04 12:33:54 51°14.702 2°46.277 93.4 14.8 87 12.2
2004-05-04 12:34:54 51°14.728 2°46.664 90.4 14.6 84 14.2
2004-05-04 12:35:54 51°14.755 2°47.053 91.1 14.8 83 15.7
2004-05-04 12:36:54 51°14.776 2°47.443 95.5 14.7 88 15.6
2004-05-04 12:37:56 51°14.806 2°47.851 90.6 14.9 82 16.1
2004-05-04 12:38:54 51°14.846 2°48.226 90 14.9 81 15
2004-05-04 12:39:54 51°14.882 2°48.614 89.4 15 82 15.2
2004-05-04 12:40:53 51°14.912 2°48.995 90.8 14.7 84 15.4
2004-05-04 12:41:54 51°14.947 2°49.392 88.1 15.3 80 15.3
2004-05-04 12:42:54 51°14.981 2°49.783 90.8 14.5 84 15.4
2004-05-04 12:43:54 51°14.988 2°50.163 96.8 14.4 89 15.2
2004-05-04 12:44:52 51°14.993 2°50.539 97.2 14.8 88 15
2004-05-04 12:45:54 51°15.003 2°50.94 96.5 14.4 89 14.8
2004-05-04 12:46:54 51°15.005 2°51.324 98.7 14.4 91 14.5
2004-05-04 12:47:54 51°15.01 2°51.71 97.9 14.5 89 14.1
2004-05-04 12:48:54 51°15.018 2°52.098 97.9 14.5 90 13.6
2004-05-04 12:49:54 51°15.027 2°52.482 96.5 14.4 87 13.3
2004-05-04 12:50:54 51°14.994 2°52.847 119.8 13.3 112 13.1
2004-05-04 12:51:54 51°14.906 2°53.179 125 13.5 117 12.9
2004-05-04 12:52:54 51°14.807 2°53.508 123.1 13.9 115 13.1
2004-05-04 12:53:55 51°14.708 2°53.843 122.8 14 115 13
2004-05-04 12:54:55 51°14.626 2°54.189 116.9 14 106 13.8
2004-05-04 12:55:52 51°14.558 2°54.526 120.4 14 111 13.1
2004-05-04 12:56:54 51°14.457 2°54.87 127.3 13.8 119 13.1